Douglas, Michigan
Current Conditions -  °F | °C
As of 11:53 AM on Saturday 20 Dec 2014 (Local Time) from KBIV Reporting Station
Haze Haze  
Wind Chill: 21°   Ceiling: 2300
Heat Index: 28°   Visibility: 6mi
Dew Point: 23°   Wind: 7mph
Humidity: 81%   Direction: 150°SSE
Pressure: 30.28"   Gusts: NA
Location:  42.64°N, 86.2°W
Report Text: KBIV 201653Z AUTO 15006KT 6SM HZ OVC023 M02/M05 A3028 RMK AO2 SLP264 T10221050
Loading
Personal Weather Stations






























Interactive Weather Map New forecast layout! Learn more

10-Day Weather Forecast

Advertisements
Track Severe Weather on mobile